Time;durP1;ratioP1;P1;durP2;ratioP2;P2;SDS_P1;SDS_P2;PMS_P1;PMS_P2;Temp;Humidity;BMP_temperature;BMP_pressure;BME280_temperature;BME280_humidity;BME280_pressure;Samples;Min_cycle;Max_cycle;Signal;HPM_P1;HPM_P2
2021/04/06 00:02:24;;;;;;;7.45;2.03;;;32.60;64.60;;;;;;5075073;28;20036;-69
2021/04/06 00:04:55;;;;;;;6.03;1.38;;;32.50;61.90;;;;;;5069203;28;20031;-69
2021/04/06 00:07:24;;;;;;;5.88;1.42;;;31.30;64.20;;;;;;5073942;28;20079;-69
2021/04/06 00:10:00;;;;;;;5.15;1.13;;;30.10;66.40;;;;;;5072131;28;20035;-68
2021/04/06 00:12:28;;;;;;;6.13;1.40;;;29.60;68.20;;;;;;5070360;28;20021;-69
2021/04/06 00:14:58;;;;;;;3.30;1.38;;;30.50;68.10;;;;;;5074964;28;20044;-69
2021/04/06 00:17:26;;;;;;;6.50;1.48;;;30.50;67.00;;;;;;5075867;28;20024;-68
2021/04/06 00:19:57;;;;;;;7.80;1.98;;;30.10;69.20;;;;;;5071489;28;20501;-69
2021/04/06 00:22:29;;;;;;;4.95;1.02;;;29.40;69.40;;;;;;5076639;28;20064;-69
2021/04/06 00:24:58;;;;;;;4.20;0.93;;;29.10;72.70;;;;;;5069920;28;20025;-70
2021/04/06 00:27:33;;;;;;;5.38;1.25;;;29.00;72.40;;;;;;5068375;28;20545;-67
2021/04/06 00:30:10;;;;;;;6.32;1.45;;;29.30;70.60;;;;;;5065334;28;20036;-68
2021/04/06 00:32:38;;;;;;;4.75;1.45;;;29.00;70.60;;;;;;5067801;28;20036;-67
2021/04/06 00:35:08;;;;;;;8.40;1.48;;;29.20;69.80;;;;;;5067388;28;20029;-69
2021/04/06 00:37:56;;;;;;;4.32;1.27;;;29.00;69.70;;;;;;5072875;28;20431;-68
2021/04/06 00:40:27;;;;;;;6.75;1.15;;;29.00;70.10;;;;;;5072065;28;20024;-72
2021/04/06 00:43:15;;;;;;;3.85;1.00;;;28.90;70.60;;;;;;5071223;28;20025;-69
2021/04/06 00:45:45;;;;;;;5.30;1.35;;;28.80;71.30;;;;;;5070822;28;20857;-68
2021/04/06 00:48:19;;;;;;;6.50;1.35;;;28.80;71.80;;;;;;5069402;28;20173;-68
2021/04/06 00:51:09;;;;;;;5.30;0.87;;;28.80;72.00;;;;;;5069762;28;20024;-69
2021/04/06 00:53:55;;;;;;;5.85;1.60;;;29.10;70.90;;;;;;5067217;28;20040;-70
2021/04/06 00:56:35;;;;;;;4.55;0.90;;;29.50;69.80;;;;;;5074817;28;20028;-69
2021/04/06 00:59:07;;;;;;;7.28;1.15;;;30.30;67.70;;;;;;5062602;28;20477;-69
2021/04/06 01:02:17;;;;;;;4.05;1.23;;;31.10;65.60;;;;;;5061830;28;20478;-69
2021/04/06 01:04:44;;;;;;;5.35;1.10;;;31.90;64.40;;;;;;5048715;28;20470;-68
2021/04/06 01:07:17;;;;;;;4.93;0.90;;;31.30;64.50;;;;;;5072274;28;20033;-68
2021/04/06 01:09:49;;;;;;;3.40;1.38;;;30.20;64.90;;;;;;5070094;28;20027;-68
2021/04/06 01:12:25;;;;;;;6.93;1.02;;;29.50;67.50;;;;;;5077494;28;20048;-68
2021/04/06 01:14:54;;;;;;;2.40;0.55;;;28.90;68.40;;;;;;5072083;28;20032;-68
2021/04/06 01:17:32;;;;;;;6.55;1.20;;;28.60;69.30;;;;;;5072594;28;20096;-67
2021/04/06 01:20:15;;;;;;;4.32;0.98;;;28.80;70.00;;;;;;5068934;28;20032;-69
2021/04/06 01:22:45;;;;;;;4.82;0.65;;;28.80;70.10;;;;;;5075091;28;20024;-69
2021/04/06 01:25:22;;;;;;;5.93;1.23;;;28.80;69.10;;;;;;5069761;28;20085;-68
2021/04/06 01:27:50;;;;;;;4.53;1.02;;;28.60;69.00;;;;;;5066585;28;20032;-69
2021/04/06 01:30:22;;;;;;;8.32;1.52;;;28.40;69.20;;;;;;5070531;28;20379;-69
2021/04/06 01:32:53;;;;;;;5.65;1.27;;;28.50;69.60;;;;;;5075157;28;20029;-69
2021/04/06 01:35:21;;;;;;;6.10;0.82;;;28.30;70.10;;;;;;5072800;28;20035;-68
2021/04/06 01:37:48;;;;;;;9.00;1.58;;;28.10;69.70;;;;;;5071093;28;20037;-70
2021/04/06 01:40:17;;;;;;;4.47;0.98;;;28.60;69.70;;;;;;5067036;28;20042;-69
2021/04/06 01:42:45;;;;;;;4.57;0.75;;;29.50;67.60;;;;;;5072293;28;20028;-69
2021/04/06 01:45:17;;;;;;;5.13;1.27;;;30.80;66.00;;;;;;5068953;28;20020;-67
2021/04/06 01:47:45;;;;;;;7.07;1.45;;;32.00;61.00;;;;;;5079158;28;20037;-67
2021/04/06 01:50:14;;;;;;;5.03;1.00;;;32.20;61.10;;;;;;5066146;28;20040;-67
2021/04/06 01:52:51;;;;;;;3.83;1.05;;;31.50;60.40;;;;;;5070692;28;20064;-67
2021/04/06 01:55:31;;;;;;;11.02;1.63;;;30.90;63.30;;;;;;5070548;28;20029;-68
2021/04/06 01:58:01;;;;;;;9.05;1.70;;;29.70;64.60;;;;;;5066784;28;20024;-68
2021/04/06 02:03:32;;;;;;;8.02;1.25;;;28.40;65.80;;;;;;5042123;28;20040;-68
2021/04/06 02:06:00;;;;;;;4.30;0.95;;;28.00;67.70;;;;;;5065596;28;20137;-68
2021/04/06 02:08:31;;;;;;;6.28;1.30;;;27.80;68.20;;;;;;5070960;28;20031;-68
2021/04/06 02:10:58;;;;;;;5.57;1.02;;;27.80;69.10;;;;;;5067818;28;20053;-70
2021/04/06 02:13:26;;;;;;;5.25;0.82;;;27.70;68.80;;;;;;5070354;28;20065;-67
2021/04/06 02:15:59;;;;;;;6.38;1.23;;;27.60;69.30;;;;;;5067940;28;20062;-67
2021/04/06 02:18:29;;;;;;;10.13;1.67;;;27.60;70.20;;;;;;5066436;28;20394;-68
2021/04/06 02:20:59;;;;;;;10.45;1.58;;;27.60;70.40;;;;;;5069150;28;20090;-68
2021/04/06 02:23:35;;;;;;;5.30;1.25;;;27.50;70.20;;;;;;5070921;28;20044;-68
2021/04/06 02:26:03;;;;;;;5.63;1.10;;;27.40;70.60;;;;;;5072704;28;20120;-68
2021/04/06 02:28:30;;;;;;;8.43;0.80;;;27.40;70.70;;;;;;5074923;28;20047;-67
2021/04/06 02:31:04;;;;;;;4.68;1.55;;;27.50;70.30;;;;;;5075347;28;20080;-69
2021/04/06 02:33:36;;;;;;;4.90;1.50;;;27.40;70.10;;;;;;5070197;28;20094;-68
2021/04/06 02:36:09;;;;;;;4.93;0.95;;;27.40;71.10;;;;;;5068063;28;20025;-67
2021/04/06 02:38:41;;;;;;;4.70;1.60;;;27.50;70.60;;;;;;5071026;28;20095;-67
2021/04/06 02:41:16;;;;;;;3.25;0.80;;;27.70;69.80;;;;;;5070614;28;20043;-68
2021/04/06 02:43:54;;;;;;;4.88;1.33;;;27.80;69.60;;;;;;5070683;28;20111;-68
2021/04/06 02:46:29;;;;;;;8.13;1.27;;;27.90;70.80;;;;;;5069664;28;20070;-67
2021/04/06 02:48:58;;;;;;;12.68;2.65;;;28.00;69.90;;;;;;5072822;28;20043;-68
2021/04/06 02:51:26;;;;;;;6.82;1.17;;;28.10;69.50;;;;;;5076594;28;20075;-67
2021/04/06 02:53:54;;;;;;;8.98;2.13;;;28.10;69.00;;;;;;5072203;28;20041;-68
2021/04/06 02:56:38;;;;;;;5.95;1.40;;;27.90;69.90;;;;;;5073923;28;20039;-67
2021/04/06 02:59:22;;;;;;;6.22;1.80;;;27.70;70.50;;;;;;5072484;28;20028;-67
2021/04/06 03:01:57;;;;;;;10.75;1.35;;;27.90;69.90;;;;;;5073237;28;20164;-68
2021/04/06 03:04:25;;;;;;;;;;;28.20;69.10;;;;;;5063899;28;20035;-67
2021/04/06 03:06:54;;;;;;;5.30;1.40;;;28.00;69.00;;;;;;5071122;28;20529;-68
2021/04/06 03:09:23;;;;;;;7.10;1.70;;;28.30;69.70;;;;;;5072857;28;20039;-68
2021/04/06 03:11:54;;;;;;;3.70;0.75;;;29.20;67.80;;;;;;5068437;28;20032;-68
2021/04/06 03:14:23;;;;;;;10.48;1.42;;;29.80;66.90;;;;;;5064995;28;20055;-68
2021/04/06 03:16:52;;;;;;;4.32;1.15;;;30.50;65.10;;;;;;5067212;28;20064;-69
2021/04/06 03:19:30;;;;;;;2.47;1.08;;;30.10;64.40;;;;;;5067656;28;20036;-69
2021/04/06 03:21:58;;;;;;;3.88;0.95;;;29.40;66.50;;;;;;5062778;28;20027;-68
2021/04/06 03:24:29;;;;;;;5.07;1.25;;;28.90;67.90;;;;;;5061708;28;20037;-68
2021/04/06 03:27:07;;;;;;;5.00;1.17;;;28.50;68.50;;;;;;5076740;28;20035;-68
2021/04/06 03:29:35;;;;;;;3.17;0.93;;;28.20;69.40;;;;;;5066781;28;20040;-68
2021/04/06 03:32:04;;;;;;;4.78;1.08;;;28.10;70.50;;;;;;5068781;28;20090;-69
2021/04/06 03:34:40;;;;;;;3.70;0.68;;;27.90;70.80;;;;;;5068879;28;20024;-68
2021/04/06 03:37:08;;;;;;;4.28;1.25;;;27.80;70.30;;;;;;5074290;28;20138;-69
2021/04/06 03:39:37;;;;;;;7.90;1.55;;;27.80;70.20;;;;;;5067467;28;20032;-68
2021/04/06 03:42:05;;;;;;;4.40;1.20;;;27.80;71.10;;;;;;5072560;28;20050;-69
2021/04/06 03:44:33;;;;;;;7.80;1.08;;;27.90;70.60;;;;;;5068039;28;20420;-68
2021/04/06 03:47:03;;;;;;;5.90;0.93;;;28.10;70.50;;;;;;5067873;28;20143;-69
2021/04/06 03:49:34;;;;;;;8.82;1.48;;;28.60;70.30;;;;;;5068931;28;20036;-71
2021/04/06 03:52:06;;;;;;;7.50;1.30;;;28.60;69.10;;;;;;5073715;28;20133;-68
2021/04/06 03:54:35;;;;;;;6.22;1.23;;;28.20;69.30;;;;;;5071719;28;20027;-68
2021/04/06 03:57:20;;;;;;;5.25;0.80;;;27.70;70.60;;;;;;5072031;28;20032;-70
2021/04/06 03:59:49;;;;;;;5.38;0.60;;;27.50;72.00;;;;;;5062876;28;20132;-70
2021/04/06 04:02:16;;;;;;;5.93;0.85;;;27.40;73.60;;;;;;5069538;28;20032;-68
2021/04/06 04:04:45;;;;;;;8.80;0.80;;;27.20;74.90;;;;;;5061642;28;20036;-68
2021/04/06 04:07:14;;;;;;;4.05;0.98;;;27.10;76.30;;;;;;5069369;28;20021;-67
2021/04/06 04:09:41;;;;;;;3.47;1.10;;;26.90;75.40;;;;;;5061692;28;20035;-70
2021/04/06 04:12:09;;;;;;;5.90;1.35;;;26.80;76.10;;;;;;5068357;28;20123;-67
2021/04/06 04:14:37;;;;;;;6.32;1.00;;;26.70;76.10;;;;;;5074759;28;20513;-67
2021/04/06 04:17:04;;;;;;;6.53;0.95;;;26.70;76.80;;;;;;5072647;28;20035;-68
2021/04/06 04:19:32;;;;;;;4.57;1.15;;;26.70;76.90;;;;;;5063150;28;20035;-68
2021/04/06 04:21:59;;;;;;;5.78;1.42;;;26.80;76.90;;;;;;5074784;28;20592;-68
2021/04/06 04:24:27;;;;;;;6.55;1.60;;;26.90;77.10;;;;;;5069047;28;20025;-68
2021/04/06 04:26:54;;;;;;;3.67;0.73;;;26.90;76.90;;;;;;5070211;28;20032;-67
2021/04/06 04:29:21;;;;;;;4.63;0.70;;;26.90;76.90;;;;;;5070594;28;20060;-68
2021/04/06 04:31:50;;;;;;;6.07;1.80;;;26.80;76.90;;;;;;5074727;28;20024;-68
2021/04/06 04:34:18;;;;;;;5.32;1.10;;;26.70;77.10;;;;;;5074532;28;20036;-67
2021/04/06 04:36:45;;;;;;;7.25;0.80;;;26.50;78.10;;;;;;5072890;28;20533;-65
2021/04/06 04:39:13;;;;;;;4.32;1.30;;;26.40;78.40;;;;;;5073561;28;20036;-70
2021/04/06 04:41:40;;;;;;;2.35;0.68;;;26.40;78.80;;;;;;5070644;28;20107;-70
2021/04/06 04:44:07;;;;;;;4.60;0.77;;;26.40;79.10;;;;;;5072318;28;20411;-67
2021/04/06 04:46:35;;;;;;;3.50;0.70;;;26.40;79.20;;;;;;5079918;28;20024;-70
2021/04/06 04:49:02;;;;;;;4.18;0.68;;;26.60;77.20;;;;;;5074384;28;20048;-67
2021/04/06 04:51:31;;;;;;;4.72;0.88;;;26.60;77.50;;;;;;5069817;28;20541;-68
2021/04/06 04:53:59;;;;;;;4.65;0.63;;;26.50;77.30;;;;;;5082814;28;20032;-67
2021/04/06 04:56:27;;;;;;;4.88;0.98;;;26.30;77.10;;;;;;5081923;28;20055;-67
2021/04/06 04:58:54;;;;;;;4.10;0.98;;;26.30;77.30;;;;;;5076690;28;20024;-68
2021/04/06 05:01:21;;;;;;;2.80;0.55;;;26.70;77.00;;;;;;5068005;28;20545;-68
2021/04/06 05:03:49;;;;;;;7.75;1.23;;;27.20;75.20;;;;;;5071190;28;20032;-67
2021/04/06 05:06:16;;;;;;;3.65;0.80;;;27.10;75.30;;;;;;5062453;28;20119;-67
2021/04/06 05:08:44;;;;;;;7.95;1.90;;;26.80;76.30;;;;;;5066420;28;20020;-67
2021/04/06 05:11:11;;;;;;;3.05;0.82;;;26.70;77.50;;;;;;5074469;28;20474;-68
2021/04/06 05:13:39;;;;;;;2.55;0.50;;;26.50;77.70;;;;;;5073764;28;20561;-70
2021/04/06 05:16:06;;;;;;;4.45;0.75;;;26.40;78.00;;;;;;5068905;28;20504;-69
2021/04/06 05:18:34;;;;;;;4.43;0.50;;;26.30;76.90;;;;;;5074922;28;20828;-71
2021/04/06 05:21:01;;;;;;;3.80;0.73;;;26.10;76.90;;;;;;5066903;28;20038;-71
2021/04/06 05:23:28;;;;;;;3.95;0.60;;;26.00;77.00;;;;;;5076524;28;20148;-68
2021/04/06 05:25:56;;;;;;;4.38;0.45;;;25.90;77.30;;;;;;5075902;28;20107;-69
2021/04/06 05:28:24;;;;;;;4.22;0.82;;;25.70;77.50;;;;;;5072638;28;20033;-69
2021/04/06 05:30:51;;;;;;;1.52;0.30;;;25.60;78.00;;;;;;5072066;28;20111;-69
2021/04/06 05:33:19;;;;;;;4.38;0.60;;;25.40;79.00;;;;;;5075370;28;20035;-71
2021/04/06 05:35:46;;;;;;;5.00;0.85;;;25.30;79.40;;;;;;5080275;28;20501;-68
2021/04/06 05:38:13;;;;;;;5.25;0.77;;;25.30;79.80;;;;;;5077216;28;20542;-67
2021/04/06 05:40:42;;;;;;;3.55;0.50;;;25.30;80.00;;;;;;5069294;28;20478;-67
2021/04/06 05:43:12;;;;;;;4.82;0.98;;;25.30;80.20;;;;;;5063649;28;20948;-67
2021/04/06 05:45:43;;;;;;;5.20;0.70;;;25.30;80.60;;;;;;5063416;28;20025;-67
2021/04/06 05:48:17;;;;;;;6.15;0.65;;;25.40;80.70;;;;;;5074515;28;20041;-68
2021/04/06 05:50:52;;;;;;;4.88;0.95;;;25.30;81.00;;;;;;5070640;28;20033;-67
2021/04/06 05:53:21;;;;;;;2.78;0.80;;;25.30;80.80;;;;;;5069044;28;20040;-68
2021/04/06 05:55:52;;;;;;;2.70;0.50;;;25.20;80.90;;;;;;5067095;28;20028;-68
2021/04/06 05:58:19;;;;;;;3.35;0.57;;;25.20;81.10;;;;;;5077406;28;20112;-68
2021/04/06 06:00:47;;;;;;;4.95;1.20;;;25.20;80.90;;;;;;5068086;28;20032;-68
2021/04/06 06:03:14;;;;;;;5.05;0.70;;;25.00;80.70;;;;;;5081039;28;20120;-68
2021/04/06 06:05:42;;;;;;;4.38;1.30;;;25.00;80.60;;;;;;5072299;28;20055;-69
2021/04/06 06:08:15;;;;;;;5.82;0.70;;;24.90;80.80;;;;;;5068023;28;20079;-68
2021/04/06 06:10:43;;;;;;;3.83;0.60;;;24.80;81.10;;;;;;5057654;28;20060;-69
2021/04/06 06:13:28;;;;;;;4.80;0.85;;;24.70;81.60;;;;;;5068530;28;20391;-69
2021/04/06 06:16:11;;;;;;;3.55;0.80;;;24.70;81.90;;;;;;5072071;28;20054;-70
2021/04/06 06:18:58;;;;;;;2.65;1.02;;;24.70;81.90;;;;;;5076428;28;20414;-68
2021/04/06 06:21:36;;;;;;;6.10;0.70;;;24.60;82.30;;;;;;5070728;28;20093;-69
2021/04/06 06:24:05;;;;;;;5.80;1.45;;;24.60;82.70;;;;;;5070919;28;20111;-68
2021/04/06 06:26:33;;;;;;;2.38;0.85;;;24.60;82.60;;;;;;5068276;28;20028;-69
2021/04/06 06:29:08;;;;;;;8.05;2.03;;;24.50;82.90;;;;;;5074178;28;20028;-68
2021/04/06 06:31:44;;;;;;;5.60;0.85;;;24.50;83.10;;;;;;5073996;28;20103;-68
2021/04/06 06:34:38;;;;;;;4.68;1.58;;;24.50;83.20;;;;;;5078165;28;20053;-68
2021/04/06 06:37:16;;;;;;;5.13;0.90;;;24.50;83.40;;;;;;5067771;28;20486;-69
2021/04/06 06:39:55;;;;;;;6.32;0.73;;;24.40;83.20;;;;;;5068109;28;20032;-68
2021/04/06 06:42:38;;;;;;;5.38;1.33;;;24.50;83.30;;;;;;5066032;28;20028;-68
2021/04/06 06:45:21;;;;;;;6.82;1.30;;;24.40;83.10;;;;;;5076316;28;20027;-69
2021/04/06 06:47:56;;;;;;;6.60;0.85;;;24.50;82.90;;;;;;5073671;28;22384;-69
2021/04/06 06:50:25;;;;;;;3.20;1.13;;;24.40;83.30;;;;;;5074199;28;20016;-70
2021/04/06 06:52:56;;;;;;;7.53;1.17;;;24.50;83.10;;;;;;5068703;28;20036;-69
2021/04/06 06:55:25;;;;;;;7.05;1.20;;;24.40;83.30;;;;;;5070561;28;20021;-68
2021/04/06 06:58:06;;;;;;;3.30;0.88;;;24.40;83.30;;;;;;5072009;28;20033;-68
2021/04/06 07:00:34;;;;;;;5.70;1.05;;;24.50;82.80;;;;;;5067688;28;20028;-68
2021/04/06 07:03:01;;;;;;;6.25;1.35;;;24.50;83.00;;;;;;5068687;28;20060;-67
2021/04/06 07:05:30;;;;;;;5.68;1.23;;;24.50;83.30;;;;;;5073032;28;20039;-67
2021/04/06 07:08:09;;;;;;;7.55;1.27;;;24.50;83.90;;;;;;5059797;28;20082;-68
2021/04/06 07:10:41;;;;;;;9.45;1.98;;;24.50;84.10;;;;;;5069833;28;20029;-67
2021/04/06 07:13:18;;;;;;;7.60;1.73;;;24.50;84.50;;;;;;5067926;28;20119;-68
2021/04/06 07:15:48;;;;;;;5.22;1.00;;;24.40;84.80;;;;;;5069918;28;20031;-68
2021/04/06 07:18:17;;;;;;;7.70;1.33;;;24.40;84.80;;;;;;5072131;28;20103;-68
2021/04/06 07:20:54;;;;;;;5.97;1.55;;;24.40;85.30;;;;;;5069942;28;20079;-68
2021/04/06 07:23:57;;;;;;;7.20;1.08;;;24.40;85.80;;;;;;5073413;28;20524;-68
2021/04/06 07:26:25;;;;;;;9.45;1.63;;;24.30;86.00;;;;;;5070142;28;20032;-68
2021/04/06 07:28:53;;;;;;;6.78;1.60;;;24.40;86.10;;;;;;5061680;28;20060;-68
2021/04/06 07:31:21;;;;;;;7.38;1.05;;;24.40;86.20;;;;;;5062446;28;20095;-69
2021/04/06 07:33:52;;;;;;;6.20;1.60;;;24.40;86.30;;;;;;5070477;28;20032;-69
2021/04/06 07:36:26;;;;;;;7.10;1.02;;;24.40;86.20;;;;;;5067729;28;20024;-68
2021/04/06 07:38:58;;;;;;;5.63;1.50;;;24.20;86.40;;;;;;5069259;28;20095;-69
2021/04/06 07:41:30;;;;;;;6.90;1.30;;;24.10;87.00;;;;;;5069544;28;20029;-69
2021/04/06 07:44:00;;;;;;;11.23;1.88;;;23.80;88.80;;;;;;5065653;28;20524;-69
2021/04/06 07:46:37;;;;;;;3.92;1.08;;;23.70;90.00;;;;;;5071145;28;20114;-69
2021/04/06 07:49:11;;;;;;;6.60;0.88;;;23.70;90.40;;;;;;5066665;28;20206;-68
2021/04/06 07:51:58;;;;;;;5.15;0.90;;;23.60;90.70;;;;;;5065168;28;20059;-69
2021/04/06 07:54:48;;;;;;;5.85;1.10;;;23.60;90.80;;;;;;5069963;28;20036;-70
2021/04/06 07:57:18;;;;;;;4.25;1.00;;;23.60;90.90;;;;;;5067538;28;20048;-70
2021/04/06 07:59:52;;;;;;;2.88;1.05;;;23.60;90.90;;;;;;5072237;28;20102;-69
2021/04/06 08:02:27;;;;;;;5.85;1.40;;;23.70;90.70;;;;;;5071272;28;20028;-70
2021/04/06 08:04:58;;;;;;;8.15;1.65;;;23.70;90.40;;;;;;5066109;28;20037;-68
2021/04/06 08:07:32;;;;;;;3.45;1.20;;;23.80;90.20;;;;;;5061913;28;20074;-69
2021/04/06 08:10:25;;;;;;;4.32;0.95;;;23.80;90.10;;;;;;5072588;28;20063;-68
2021/04/06 08:12:54;;;;;;;4.70;1.33;;;23.80;90.10;;;;;;5070068;28;21588;-70
2021/04/06 08:15:22;;;;;;;5.15;0.63;;;23.70;90.20;;;;;;5069085;28;20028;-70
2021/04/06 08:17:52;;;;;;;11.13;2.05;;;23.60;90.40;;;;;;5075391;28;20028;-69
2021/04/06 08:20:22;;;;;;;4.72;1.20;;;23.70;90.30;;;;;;5065713;28;20369;-68
2021/04/06 08:23:02;;;;;;;5.22;1.30;;;23.60;90.60;;;;;;5071735;28;20525;-68
2021/04/06 08:25:32;;;;;;;6.30;1.00;;;23.70;90.50;;;;;;5071410;28;20081;-69
2021/04/06 08:28:06;;;;;;;4.60;1.00;;;23.80;90.20;;;;;;5069570;28;20032;-69
2021/04/06 08:30:36;;;;;;;4.85;1.83;;;23.80;90.20;;;;;;5062639;28;20463;-69
2021/04/06 08:33:11;;;;;;;7.88;1.00;;;23.90;90.00;;;;;;5073602;28;20485;-70
2021/04/06 08:35:53;;;;;;;2.95;0.85;;;23.80;90.10;;;;;;5065515;28;20013;-71
2021/04/06 08:38:29;;;;;;;4.55;1.10;;;23.80;90.20;;;;;;5076377;28;20081;-67
2021/04/06 08:41:13;;;;;;;6.13;1.27;;;23.70;90.20;;;;;;5070112;28;20092;-68
2021/04/06 08:43:51;;;;;;;3.28;0.85;;;23.70;90.10;;;;;;5078273;28;20024;-68
2021/04/06 08:46:29;;;;;;;3.88;1.35;;;23.70;90.30;;;;;;5068843;28;20035;-69
2021/04/06 08:48:57;;;;;;;7.18;1.20;;;23.60;90.60;;;;;;5066365;28;20121;-69
2021/04/06 08:51:41;;;;;;;3.63;1.02;;;23.50;90.60;;;;;;5069521;28;20032;-68
2021/04/06 08:54:12;;;;;;;6.97;0.98;;;23.50;90.70;;;;;;5063348;28;20524;-69
2021/04/06 08:56:42;;;;;;;5.35;1.08;;;23.60;90.50;;;;;;5065811;28;20111;-69
2021/04/06 08:59:34;;;;;;;9.77;2.15;;;23.70;90.40;;;;;;5067037;28;20115;-71
2021/04/06 09:02:04;;;;;;;6.15;1.10;;;23.60;90.30;;;;;;5071236;28;20028;-70
2021/04/06 09:04:37;;;;;;;9.35;1.42;;;23.50;90.50;;;;;;5065618;28;20028;-69
2021/04/06 09:07:27;;;;;;;4.38;1.13;;;23.50;90.60;;;;;;5068642;28;20024;-69
2021/04/06 09:09:59;;;;;;;3.08;0.77;;;23.40;90.70;;;;;;5071504;28;20024;-68
2021/04/06 09:12:27;;;;;;;3.33;1.20;;;23.20;91.10;;;;;;5066710;28;20055;-68
2021/04/06 09:14:56;;;;;;;6.03;1.08;;;23.10;91.30;;;;;;5073883;28;20024;-69
2021/04/06 09:17:28;;;;;;;8.50;1.30;;;23.10;91.40;;;;;;5066509;28;20033;-68
2021/04/06 09:19:56;;;;;;;7.97;1.77;;;23.20;91.20;;;;;;5064476;28;20028;-69
2021/04/06 09:22:24;;;;;;;8.02;2.53;;;23.10;91.20;;;;;;5071877;28;20025;-69
2021/04/06 09:24:51;;;;;;;9.10;2.72;;;22.90;91.70;;;;;;5063251;28;20027;-69
2021/04/06 09:27:19;;;;;;;5.68;2.78;;;22.80;91.90;;;;;;5074278;28;20305;-69
2021/04/06 09:29:49;;;;;;;9.90;2.15;;;22.70;92.10;;;;;;5058660;28;20040;-70
2021/04/06 09:32:21;;;;;;;5.18;1.20;;;22.60;92.20;;;;;;5068926;28;20119;-70
2021/04/06 09:34:50;;;;;;;6.35;1.17;;;22.60;92.30;;;;;;5068917;28;20032;-70
2021/04/06 09:37:20;;;;;;;6.47;1.90;;;22.40;92.40;;;;;;5074468;28;20043;-69
2021/04/06 09:39:59;;;;;;;5.22;1.73;;;22.40;92.60;;;;;;5062345;28;20532;-70
2021/04/06 09:42:26;;;;;;;5.55;1.52;;;22.30;92.70;;;;;;5070177;28;20048;-70
2021/04/06 09:44:54;;;;;;;18.20;3.72;;;22.30;92.70;;;;;;5072791;28;20024;-69
2021/04/06 09:47:24;;;;;;;6.20;1.30;;;22.30;92.80;;;;;;5069210;28;20113;-69
2021/04/06 09:49:56;;;;;;;7.65;1.73;;;22.30;92.80;;;;;;5069850;28;20044;-69
2021/04/06 09:52:26;;;;;;;10.63;1.58;;;22.30;92.80;;;;;;5073063;28;20039;-69
2021/04/06 09:54:59;;;;;;;5.00;1.30;;;22.30;92.90;;;;;;5070919;28;20034;-70
2021/04/06 09:57:47;;;;;;;10.10;1.83;;;22.40;92.90;;;;;;5069678;28;20029;-68
2021/04/06 10:00:26;;;;;;;7.82;2.17;;;22.40;92.80;;;;;;5069487;28;20739;-68
2021/04/06 10:03:14;;;;;;;6.25;1.15;;;22.40;92.80;;;;;;5067507;28;20085;-68
2021/04/06 10:05:45;;;;;;;7.00;1.65;;;22.40;92.70;;;;;;5072684;28;20405;-68
2021/04/06 10:08:14;;;;;;;6.18;1.67;;;22.40;92.70;;;;;;5072699;28;20063;-67
2021/04/06 10:10:49;;;;;;;9.07;2.03;;;22.50;92.70;;;;;;5066334;28;20024;-68
2021/04/06 10:13:17;;;;;;;9.40;2.67;;;22.40;92.60;;;;;;5069969;28;20042;-68
2021/04/06 10:15:44;;;;;;;8.73;1.63;;;22.40;92.60;;;;;;5067151;28;20024;-68
2021/04/06 10:18:15;;;;;;;3.95;1.17;;;22.40;92.50;;;;;;5075164;28;20039;-68
2021/04/06 10:20:46;;;;;;;5.90;1.65;;;22.40;92.50;;;;;;5063688;28;20344;-67
2021/04/06 10:23:30;;;;;;;7.93;1.48;;;22.30;92.50;;;;;;5069503;28;20386;-67
2021/04/06 10:25:58;;;;;;;6.47;2.03;;;22.30;92.50;;;;;;5069050;28;20481;-67
2021/04/06 10:28:28;;;;;;;9.52;2.45;;;22.20;92.70;;;;;;5069818;28;20112;-70
2021/04/06 10:31:02;;;;;;;7.55;2.67;;;22.10;92.90;;;;;;5067639;28;20600;-69
2021/04/06 10:33:38;;;;;;;6.97;2.35;;;22.00;93.00;;;;;;5071850;28;20051;-69
2021/04/06 10:36:09;;;;;;;7.43;2.50;;;22.00;93.00;;;;;;5061626;28;20032;-71
2021/04/06 10:38:40;;;;;;;9.02;2.70;;;22.00;93.00;;;;;;5070388;28;20052;-68
2021/04/06 10:41:12;;;;;;;6.53;2.38;;;22.10;92.90;;;;;;5071855;28;20045;-69
2021/04/06 10:43:45;;;;;;;10.98;3.17;;;22.10;93.00;;;;;;5067222;28;20435;-70
2021/04/06 10:46:15;;;;;;;7.90;3.65;;;22.00;93.00;;;;;;5071262;28;20039;-70
2021/04/06 10:48:47;;;;;;;8.10;2.97;;;21.90;93.30;;;;;;5060537;28;20039;-69
2021/04/06 10:51:20;;;;;;;7.50;2.85;;;21.80;93.10;;;;;;5068907;28;20036;-69
2021/04/06 10:54:12;;;;;;;7.22;2.20;;;21.90;93.10;;;;;;5069036;28;20169;-69
2021/04/06 10:56:49;;;;;;;10.98;2.55;;;21.80;93.20;;;;;;5063521;28;20043;-68
2021/04/06 10:59:36;;;;;;;6.80;2.50;;;21.70;93.40;;;;;;5073039;28;20048;-68
2021/04/06 11:02:05;;;;;;;8.52;2.38;;;21.70;93.40;;;;;;5074993;28;20021;-68
2021/04/06 11:04:41;;;;;;;5.95;2.35;;;21.70;93.30;;;;;;5075829;28;20039;-69
2021/04/06 11:07:09;;;;;;;6.15;1.70;;;21.70;93.40;;;;;;5077417;28;20029;-69
2021/04/06 11:09:41;;;;;;;6.50;2.20;;;21.60;93.50;;;;;;5072292;28;20103;-68
2021/04/06 11:12:11;;;;;;;6.85;1.90;;;21.60;93.70;;;;;;5074278;28;20099;-69
2021/04/06 11:14:41;;;;;;;7.35;2.03;;;21.60;93.70;;;;;;5071107;28;20029;-69
2021/04/06 11:17:10;;;;;;;5.88;1.30;;;21.50;93.70;;;;;;5083600;28;20374;-70
2021/04/06 11:19:40;;;;;;;5.70;1.48;;;21.50;93.90;;;;;;5075080;28;20036;-67
2021/04/06 11:22:13;;;;;;;5.05;1.90;;;21.50;93.90;;;;;;5078571;28;20021;-67
2021/04/06 11:24:43;;;;;;;6.90;2.22;;;21.40;93.80;;;;;;5070530;28;20143;-67
2021/04/06 11:27:13;;;;;;;5.38;2.53;;;21.40;93.80;;;;;;5080244;28;20016;-69
2021/04/06 11:29:42;;;;;;;4.35;1.80;;;21.30;94.00;;;;;;5065773;28;20029;-68
2021/04/06 11:32:12;;;;;;;7.68;2.53;;;21.30;94.40;;;;;;5073138;28;20024;-67
2021/04/06 11:34:41;;;;;;;6.93;2.08;;;21.40;94.30;;;;;;5079071;28;20032;-69
2021/04/06 11:37:10;;;;;;;7.07;1.83;;;21.40;94.20;;;;;;5079328;28;20371;-68
2021/04/06 11:39:45;;;;;;;9.13;1.70;;;21.40;94.10;;;;;;5077284;28;20027;-67
2021/04/06 11:42:15;;;;;;;4.05;1.35;;;21.40;94.00;;;;;;5077257;28;20445;-67
2021/04/06 11:44:43;;;;;;;4.88;1.88;;;21.40;94.00;;;;;;5071502;28;20406;-68
2021/04/06 11:47:10;;;;;;;4.97;1.48;;;21.50;94.00;;;;;;5070271;28;20043;-67
2021/04/06 11:49:38;;;;;;;7.20;1.98;;;21.50;94.10;;;;;;5077453;28;20112;-68
2021/04/06 11:52:06;;;;;;;6.03;1.60;;;21.60;93.90;;;;;;5063808;28;20029;-69
2021/04/06 11:54:34;;;;;;;8.55;2.38;;;21.60;93.90;;;;;;5072311;28;20442;-68
2021/04/06 11:57:02;;;;;;;4.90;1.25;;;21.50;94.00;;;;;;5076581;28;20040;-68
2021/04/06 11:59:30;;;;;;;4.35;1.10;;;21.50;94.10;;;;;;5066217;28;20487;-67
2021/04/06 12:01:57;;;;;;;5.43;1.23;;;21.40;94.20;;;;;;5061323;28;20466;-69
2021/04/06 12:04:25;;;;;;;4.90;1.65;;;21.40;94.30;;;;;;5061864;28;20490;-69
2021/04/06 12:06:52;;;;;;;3.88;0.95;;;21.30;94.50;;;;;;5068201;28;20028;-71
2021/04/06 12:09:19;;;;;;;7.05;2.20;;;21.20;94.70;;;;;;5069286;28;20021;-69
2021/04/06 12:11:47;;;;;;;4.65;1.63;;;21.20;94.80;;;;;;5081468;28;20096;-68
2021/04/06 12:14:14;;;;;;;7.53;1.77;;;21.20;94.80;;;;;;5067180;28;20049;-68
2021/04/06 12:16:42;;;;;;;5.07;1.20;;;21.20;94.70;;;;;;5081274;28;20527;-68
2021/04/06 12:19:09;;;;;;;9.23;1.83;;;21.10;94.60;;;;;;5071606;28;20044;-70
2021/04/06 12:21:36;;;;;;;4.53;1.10;;;21.10;94.50;;;;;;5073890;28;20349;-70
2021/04/06 12:24:04;;;;;;;5.88;1.23;;;21.20;94.30;;;;;;5076130;28;20055;-69
2021/04/06 12:26:31;;;;;;;6.95;1.33;;;21.10;94.50;;;;;;5069163;28;20351;-69
2021/04/06 12:28:59;;;;;;;8.93;1.67;;;21.10;94.20;;;;;;5070046;28;20012;-67
2021/04/06 12:31:26;;;;;;;7.78;1.50;;;21.10;94.10;;;;;;5069397;28;20024;-68
2021/04/06 12:33:54;;;;;;;5.10;1.35;;;20.90;94.50;;;;;;5067334;28;20474;-67
2021/04/06 12:36:24;;;;;;;5.22;1.45;;;20.90;94.60;;;;;;5064261;28;20504;-68
2021/04/06 12:38:52;;;;;;;5.78;1.00;;;20.80;94.60;;;;;;5067595;28;20063;-68
2021/04/06 12:41:20;;;;;;;3.35;1.88;;;20.70;94.80;;;;;;5069624;28;20043;-67
2021/04/06 12:43:47;;;;;;;7.25;1.17;;;20.70;94.80;;;;;;5070076;28;20016;-67
2021/04/06 12:46:14;;;;;;;7.57;1.48;;;20.70;95.00;;;;;;5063141;28;20033;-69
2021/04/06 12:48:42;;;;;;;4.55;1.65;;;20.70;94.80;;;;;;5069979;28;20037;-69
2021/04/06 12:51:11;;;;;;;3.90;1.10;;;20.70;95.20;;;;;;5065896;28;20055;-68
2021/04/06 12:53:38;;;;;;;4.45;1.30;;;20.80;94.90;;;;;;5070895;28;20054;-69
2021/04/06 12:56:06;;;;;;;7.13;1.40;;;20.90;94.90;;;;;;5063409;28;20427;-67
2021/04/06 12:58:33;;;;;;;4.75;1.80;;;20.80;95.20;;;;;;5067770;28;20025;-70
2021/04/06 13:01:01;;;;;;;7.18;1.58;;;20.70;95.20;;;;;;5067193;28;20024;-68
2021/04/06 13:03:28;;;;;;;6.82;1.20;;;20.70;95.40;;;;;;5066304;28;20435;-68
2021/04/06 13:05:55;;;;;;;7.28;1.70;;;20.60;95.50;;;;;;5069406;28;20031;-68
2021/04/06 13:08:23;;;;;;;6.60;2.08;;;20.70;95.40;;;;;;5070265;28;20088;-68
2021/04/06 13:10:52;;;;;;;8.13;2.00;;;20.70;95.40;;;;;;5072305;28;20036;-68
2021/04/06 13:13:20;;;;;;;5.22;2.20;;;20.60;95.40;;;;;;5076434;28;20065;-68